Padre Bernardo, Brazil
Current Conditions -  °F | °C
As of 1:00 AM on Monday 22 Dec 2014 (Local Time) from SBBR Reporting Station
Light Rain Light Rain  
Wind Chill: 70°   Ceiling: 4000
Heat Index: 70°   Visibility: 6mi
Dew Point: 66°   Wind: 0mph
Humidity: 88%   Direction: NA
Pressure: 30.12"   Gusts: NA
Location:  15.36°S, 48.51°W
Report Text: SBBR 220300Z 00000KT 9999 -RA BKN040 OVC080 21/19 Q1020 RERA
Loading
Personal Weather Stations






























Interactive Weather Map New forecast layout! Learn more

10-Day Weather Forecast

Advertisements
Track Severe Weather on mobile